createdAt,value
2019-02-27T00:02:56.182Z,70.50
2019-02-27T00:07:58.929Z,71.60
2019-02-27T00:13:02.309Z,72.10
2019-02-27T00:18:05.691Z,72.30
2019-02-27T00:23:09.063Z,72.50
2019-02-27T00:28:12.443Z,72.80
2019-02-27T00:33:15.828Z,72.60
2019-02-27T00:38:19.203Z,72.80
2019-02-27T00:43:22.579Z,73.10
2019-02-27T00:48:26.686Z,73.90
2019-02-27T00:53:30.119Z,74.90
2019-02-27T00:58:33.502Z,75.50
2019-02-27T01:03:36.895Z,76.20
2019-02-27T01:08:40.273Z,76.60
2019-02-27T01:13:43.672Z,77.10
2019-02-27T01:18:47.055Z,77.20
2019-02-27T01:23:50.439Z,77.40
2019-02-27T01:28:53.814Z,77.70
2019-02-27T01:33:57.199Z,77.70
2019-02-27T01:39:00.590Z,78.00
2019-02-27T01:44:04.043Z,77.90
2019-02-27T01:49:07.431Z,78.10
2019-02-27T01:54:12.216Z,78.00
2019-02-27T01:59:16.972Z,78.30
2019-02-27T02:04:21.071Z,78.20
2019-02-27T02:09:35.363Z,78.40
2019-02-27T02:14:56.579Z,78.30
2019-02-27T02:20:20.755Z,78.00
2019-02-27T02:25:44.913Z,77.80
2019-02-27T02:30:51.363Z,77.80
2019-02-27T02:36:06.568Z,77.50
2019-02-27T02:41:47.921Z,77.70
2019-02-27T02:47:02.991Z,77.20
2019-02-27T02:52:21.328Z,77.20
2019-02-27T02:57:45.757Z,77.30
2019-02-27T03:02:57.521Z,77.40
2019-02-27T03:08:03.403Z,77.20
2019-02-27T03:13:27.557Z,77.00
2019-02-27T03:18:48.622Z,76.90
2019-02-27T03:23:57.733Z,76.70
2019-02-27T03:29:24.859Z,76.90
2019-02-27T03:34:51.799Z,77.10
2019-02-27T03:40:01.007Z,77.00
2019-02-27T03:45:30.652Z,77.00
2019-02-27T03:50:52.701Z,76.70
2019-02-27T03:56:19.824Z,76.90
2019-02-27T04:01:31.973Z,76.60
2019-02-27T04:06:44.133Z,76.70
2019-02-27T04:11:47.519Z,76.70
2019-02-27T04:16:50.903Z,76.80
2019-02-27T04:21:54.279Z,77.30
2019-02-27T04:26:57.660Z,76.90
2019-02-27T04:32:01.046Z,76.80
2019-02-27T04:37:04.458Z,77.00
2019-02-27T04:42:07.821Z,77.10
2019-02-27T04:47:11.248Z,77.30
2019-02-27T04:52:14.641Z,77.50
2019-02-27T04:57:18.010Z,78.00
2019-02-27T05:02:21.403Z,78.00
2019-02-27T05:07:24.799Z,78.00
2019-02-27T05:12:28.183Z,78.10
2019-02-27T05:17:31.572Z,78.40
2019-02-27T05:22:34.954Z,78.70
2019-02-27T05:27:38.339Z,79.00
2019-02-27T05:32:41.733Z,79.10
2019-02-27T05:37:45.101Z,79.30
2019-02-27T05:42:48.489Z,79.60
2019-02-27T05:47:51.862Z,79.90
2019-02-27T05:52:55.251Z,80.00
2019-02-27T05:57:58.734Z,80.30
2019-02-27T06:03:02.117Z,80.20
2019-02-27T06:08:05.506Z,80.50
2019-02-27T06:13:08.879Z,80.90
2019-02-27T06:18:12.278Z,81.10
2019-02-27T06:23:15.660Z,81.20
2019-02-27T06:28:19.438Z,81.80
2019-02-27T06:33:22.815Z,82.10
2019-02-27T06:38:26.188Z,82.40
2019-02-27T06:43:29.586Z,83.00
2019-02-27T06:48:32.964Z,84.10
2019-02-27T06:53:36.356Z,83.90
2019-02-27T06:58:39.719Z,84.10
2019-02-27T07:03:43.118Z,84.40
2019-02-27T07:08:46.483Z,85.20
2019-02-27T07:13:49.879Z,84.90
2019-02-27T07:18:53.267Z,85.00
2019-02-27T07:23:58.585Z,84.80
2019-02-27T07:29:01.753Z,84.70
2019-02-27T07:34:05.131Z,84.80
2019-02-27T07:39:08.519Z,84.40
2019-02-27T07:44:11.899Z,84.20
2019-02-27T07:49:15.280Z,83.60
2019-02-27T07:54:18.661Z,82.80
2019-02-27T07:59:22.115Z,82.60
2019-02-27T08:04:25.483Z,82.60
2019-02-27T08:09:30.200Z,82.00
2019-02-27T08:14:36.936Z,80.40
2019-02-27T08:19:39.306Z,79.70
2019-02-27T08:24:42.692Z,79.60
2019-02-27T08:29:46.059Z,80.80
2019-02-27T08:34:49.443Z,81.40
2019-02-27T08:39:52.900Z,83.00
2019-02-27T08:44:56.356Z,84.50
2019-02-27T08:49:59.731Z,86.10
2019-02-27T08:55:05.613Z,85.90
2019-02-27T09:00:14.214Z,84.50
2019-02-27T09:05:19.773Z,84.50
2019-02-27T09:10:26.688Z,84.10
2019-02-27T09:15:29.284Z,82.40
2019-02-27T09:20:32.679Z,80.40
2019-02-27T09:25:36.072Z,79.80
2019-02-27T09:30:39.455Z,79.50
2019-02-27T09:35:42.835Z,78.40
2019-02-27T09:40:46.220Z,75.50
2019-02-27T09:45:49.608Z,76.70
2019-02-27T09:50:52.987Z,73.70
2019-02-27T09:55:56.375Z,75.90
2019-02-27T10:01:03.220Z,77.40
2019-02-27T10:06:08.718Z,71.40
2019-02-27T10:11:11.852Z,68.60
2019-02-27T10:16:15.226Z,72.20
2019-02-27T10:21:18.613Z,71.70
2019-02-27T10:26:22.656Z,71.10
2019-02-27T10:31:26.937Z,72.10
2019-02-27T10:36:30.418Z,73.50
2019-02-27T10:41:33.885Z,70.20
2019-02-27T10:46:37.278Z,71.30
2019-02-27T10:51:41.539Z,65.60
2019-02-27T10:56:45.779Z,68.60
2019-02-27T11:01:49.170Z,69.20
2019-02-27T11:06:52.549Z,68.50
2019-02-27T11:11:55.943Z,69.50
2019-02-27T11:17:02.437Z,65.20
2019-02-27T11:22:04.431Z,67.10
2019-02-27T11:27:07.823Z,67.80
2019-02-27T11:32:11.212Z,64.10
2019-02-27T11:37:16.428Z,65.20
2019-02-27T11:42:19.691Z,65.20
2019-02-27T11:47:23.083Z,62.10
2019-02-27T11:52:28.644Z,62.50
2019-02-27T11:57:31.663Z,59.60
2019-02-27T12:02:37.830Z,60.30
2019-02-27T12:07:40.147Z,61.30
2019-02-27T12:12:43.536Z,60.10
2019-02-27T12:17:47.100Z,64.90
2019-02-27T12:22:50.485Z,63.60
2019-02-27T12:27:55.547Z,60.80
2019-02-27T12:32:59.014Z,58.40
2019-02-27T12:38:07.232Z,61.40
2019-02-27T12:43:07.711Z,62.10
2019-02-27T12:48:12.611Z,60.50
2019-02-27T12:53:20.747Z,61.20
2019-02-27T12:58:24.279Z,61.70
2019-02-27T13:03:26.382Z,62.20
2019-02-27T13:08:29.759Z,62.40
2019-02-27T13:13:33.147Z,58.40
2019-02-27T13:18:36.536Z,60.80
2019-02-27T13:23:42.273Z,60.30
2019-02-27T13:28:46.022Z,59.30
2019-02-27T13:33:50.127Z,61.30
2019-02-27T13:38:53.512Z,57.30
2019-02-27T13:43:58.219Z,56.80
2019-02-27T13:49:02.027Z,61.70
2019-02-27T13:54:05.415Z,59.40
2019-02-27T13:59:10.998Z,57.30
2019-02-27T14:04:13.928Z,55.40
2019-02-27T14:09:18.975Z,56.50
2019-02-27T14:14:22.471Z,56.90
2019-02-27T14:19:25.856Z,57.80
2019-02-27T14:24:29.237Z,58.90
2019-02-27T14:29:32.615Z,59.50
2019-02-27T14:34:36.013Z,60.90
2019-02-27T14:39:39.409Z,57.80
2019-02-27T14:44:42.797Z,59.90
2019-02-27T14:49:46.195Z,57.60
2019-02-27T14:54:49.604Z,56.20
2019-02-27T14:59:52.999Z,60.10
2019-02-27T15:04:56.392Z,60.10
2019-02-27T15:09:59.783Z,59.70
2019-02-27T15:15:03.800Z,58.00
2019-02-27T15:20:10.399Z,58.60
2019-02-27T15:25:15.715Z,57.10
2019-02-27T15:30:28.096Z,58.10
2019-02-27T15:35:31.497Z,57.50
2019-02-27T15:40:34.942Z,56.90
2019-02-27T15:45:47.277Z,57.20
2019-02-27T15:50:43.451Z,56.50
2019-02-27T15:55:46.841Z,56.20
2019-02-27T16:00:52.624Z,56.10
2019-02-27T16:05:55.403Z,56.30
2019-02-27T16:10:58.782Z,55.90
2019-02-27T16:16:02.172Z,56.60
2019-02-27T16:21:05.556Z,57.00
2019-02-27T16:26:08.934Z,56.70
2019-02-27T16:31:12.319Z,58.60
2019-02-27T16:36:16.439Z,57.50
2019-02-27T16:41:19.871Z,57.10
2019-02-27T16:46:23.317Z,57.80
2019-02-27T16:51:26.997Z,58.00
2019-02-27T16:56:30.417Z,58.50
2019-02-27T17:01:33.982Z,58.40
2019-02-27T17:06:37.371Z,59.80
2019-02-27T17:11:40.759Z,60.00
2019-02-27T17:16:44.864Z,60.00
2019-02-27T17:21:48.919Z,59.80
2019-02-27T17:26:52.305Z,60.10
2019-02-27T17:31:56.490Z,60.50
2019-02-27T17:36:59.855Z,60.70
2019-02-27T17:42:03.234Z,61.20
2019-02-27T17:47:08.153Z,61.30
2019-02-27T17:52:14.331Z,61.30
2019-02-27T17:57:16.679Z,61.50
2019-02-27T18:02:20.137Z,61.80
2019-02-27T18:07:23.523Z,61.90
2019-02-27T18:12:27.618Z,62.10
2019-02-27T18:17:34.641Z,62.20
2019-02-27T18:22:36.184Z,62.20
2019-02-27T18:27:39.567Z,62.50
2019-02-27T18:32:42.960Z,62.70
2019-02-27T18:37:46.587Z,63.20
2019-02-27T18:42:55.362Z,63.30
2019-02-27T18:47:55.179Z,63.90
2019-02-27T18:52:58.572Z,63.80
2019-02-27T18:58:01.976Z,64.20
2019-02-27T19:03:10.015Z,64.00
2019-02-27T19:08:13.479Z,64.60
2019-02-27T19:13:16.943Z,64.80
2019-02-27T19:18:20.337Z,65.30
2019-02-27T19:23:25.654Z,65.80
2019-02-27T19:28:29.097Z,66.30
2019-02-27T19:33:35.880Z,66.00
2019-02-27T19:38:37.774Z,68.00
2019-02-27T19:43:41.146Z,68.20
2019-02-27T19:48:44.616Z,68.40
2019-02-27T19:53:47.992Z,69.00
2019-02-27T19:58:52.183Z,69.20
2019-02-27T20:03:55.789Z,69.60
2019-02-27T20:08:59.239Z,69.70
2019-02-27T20:14:03.563Z,70.00
2019-02-27T20:19:07.004Z,70.80
2019-02-27T20:24:14.442Z,71.20
2019-02-27T20:29:15.655Z,71.30
2019-02-27T20:34:19.039Z,71.90
2019-02-27T20:39:23.577Z,72.30
2019-02-27T20:44:27.521Z,72.60
2019-02-27T20:49:30.887Z,73.30
2019-02-27T20:54:34.275Z,73.80
2019-02-27T20:59:37.655Z,74.50
2019-02-27T21:04:41.045Z,74.80
2019-02-27T21:09:45.163Z,75.50
2019-02-27T21:14:49.297Z,75.90
2019-02-27T21:19:52.687Z,76.00
2019-02-27T21:24:56.063Z,76.60
2019-02-27T21:29:59.444Z,77.40
2019-02-27T21:35:02.883Z,78.00
2019-02-27T21:40:09.434Z,78.40
2019-02-27T21:45:17.044Z,79.00
2019-02-27T21:50:27.143Z,78.90
2019-02-27T21:55:30.531Z,79.70
2019-02-27T22:00:33.922Z,80.60
2019-02-27T22:05:42.752Z,81.20
2019-02-27T22:10:42.402Z,81.50
2019-02-27T22:15:45.779Z,80.70
2019-02-27T22:20:49.163Z,81.90
2019-02-27T22:25:52.548Z,82.20
2019-02-27T22:30:55.935Z,82.70
2019-02-27T22:35:59.315Z,82.20
2019-02-27T22:41:02.728Z,83.10
2019-02-27T22:46:06.137Z,83.10
2019-02-27T22:51:12.606Z,82.40
2019-02-27T22:56:16.844Z,82.20
2019-02-27T23:01:22.951Z,83.20
2019-02-27T23:06:26.337Z,83.80
2019-02-27T23:11:29.719Z,83.50
2019-02-27T23:16:33.099Z,84.20
2019-02-27T23:21:36.559Z,84.60
2019-02-27T23:26:39.940Z,84.50
2019-02-27T23:31:43.325Z,84.90
2019-02-27T23:36:46.720Z,85.00
2019-02-27T23:41:50.116Z,85.30
2019-02-27T23:46:57.097Z,86.10
2019-02-27T23:51:58.607Z,86.80
2019-02-27T23:57:02.004Z,86.90
